createdAt,value
2022-12-23T00:00:37.147Z,10.52
2022-12-23T00:03:05.803Z,10.53
2022-12-23T00:05:37.702Z,10.53
2022-12-23T00:08:05.949Z,10.54
2022-12-23T00:10:33.672Z,10.56
2022-12-23T00:13:19.058Z,10.57
2022-12-23T00:15:46.763Z,10.57
2022-12-23T00:18:14.431Z,10.58
2022-12-23T00:20:42.248Z,10.59
2022-12-23T00:23:10.442Z,10.58
2022-12-23T00:25:45.621Z,10.60
2022-12-23T00:28:13.454Z,10.61
2022-12-23T00:30:41.221Z,10.61
2022-12-23T00:33:08.963Z,10.62
2022-12-23T00:35:36.627Z,10.62
2022-12-23T00:38:04.310Z,10.61
2022-12-23T00:40:49.237Z,10.62
2022-12-23T00:43:18.249Z,10.62
2022-12-23T00:45:45.960Z,10.63
2022-12-23T00:48:31.567Z,10.64
2022-12-23T00:50:59.201Z,10.63
2022-12-23T00:53:27.059Z,10.63
2022-12-23T00:55:54.720Z,10.65
2022-12-23T00:58:22.347Z,10.65
2022-12-23T01:01:07.584Z,10.66
2022-12-23T01:03:53.090Z,10.67
2022-12-23T01:06:20.955Z,10.68
2022-12-23T01:08:48.573Z,10.70
2022-12-23T01:11:17.095Z,10.70
2022-12-23T01:13:45.313Z,10.72
2022-12-23T01:16:17.364Z,10.72
2022-12-23T01:18:45.642Z,10.72
2022-12-23T01:21:13.318Z,10.72
2022-12-23T01:23:41.626Z,10.72
2022-12-23T01:26:09.706Z,10.72
2022-12-23T01:28:37.376Z,10.71
2022-12-23T01:31:04.985Z,10.69
2022-12-23T01:33:32.657Z,10.66
2022-12-23T01:36:00.932Z,10.64
2022-12-23T01:38:28.556Z,10.62
2022-12-23T01:40:56.158Z,10.55
2022-12-23T01:43:22.791Z,10.49
2022-12-23T01:45:50.935Z,10.45
2022-12-23T01:48:19.135Z,10.43
2022-12-23T01:50:46.802Z,10.41
2022-12-23T01:53:14.447Z,10.38
2022-12-23T01:55:42.034Z,10.37
2022-12-23T01:58:09.963Z,10.35
2022-12-23T02:00:55.115Z,10.35
2022-12-23T02:03:40.374Z,10.32
2022-12-23T02:06:25.674Z,10.32
2022-12-23T02:09:10.923Z,10.31
2022-12-23T02:11:39.619Z,10.30
2022-12-23T02:14:24.883Z,10.29
2022-12-23T02:16:52.559Z,10.29
2022-12-23T02:19:20.143Z,10.27
2022-12-23T02:21:48.631Z,10.28
2022-12-23T02:24:16.319Z,10.28
2022-12-23T02:26:44.362Z,10.27
2022-12-23T02:29:12.516Z,10.27
2022-12-23T02:31:40.094Z,10.28
2022-12-23T02:34:08.096Z,10.27
2022-12-23T02:36:35.841Z,10.28
2022-12-23T02:39:03.504Z,10.27
2022-12-23T02:41:31.121Z,10.28
2022-12-23T02:43:58.824Z,10.27
2022-12-23T02:46:27.046Z,10.28
2022-12-23T02:48:54.712Z,10.28
2022-12-23T02:51:22.357Z,10.27
2022-12-23T02:53:49.961Z,10.28
2022-12-23T02:56:17.573Z,10.28
2022-12-23T02:58:45.538Z,10.28
2022-12-23T03:01:13.280Z,10.28
2022-12-23T03:03:41.015Z,10.29
2022-12-23T03:06:08.730Z,10.29
2022-12-23T03:08:36.325Z,10.28
2022-12-23T03:11:05.871Z,10.30
2022-12-23T03:13:33.490Z,10.29
2022-12-23T03:16:01.114Z,10.30
2022-12-23T03:18:28.761Z,10.29
2022-12-23T03:20:56.425Z,10.30
2022-12-23T03:23:24.359Z,10.31
2022-12-23T03:25:51.976Z,10.32
2022-12-23T03:28:19.593Z,10.33
2022-12-23T03:30:47.222Z,10.33
2022-12-23T03:33:15.299Z,10.33
2022-12-23T03:35:43.132Z,10.32
2022-12-23T03:38:10.727Z,10.33
2022-12-23T03:40:38.350Z,10.32
2022-12-23T03:43:06.026Z,10.32
2022-12-23T03:45:41.491Z,10.30
2022-12-23T03:48:09.985Z,10.29
2022-12-23T03:50:52.947Z,10.28
2022-12-23T03:53:21.041Z,10.27
2022-12-23T03:55:48.637Z,10.27
2022-12-23T03:58:16.842Z,10.26
2022-12-23T04:00:44.508Z,10.25
2022-12-23T04:03:12.158Z,10.25
2022-12-23T04:05:39.755Z,10.25
2022-12-23T04:08:07.444Z,10.24
2022-12-23T04:10:35.649Z,10.25
2022-12-23T04:13:03.258Z,10.24
2022-12-23T04:15:31.429Z,10.23
2022-12-23T04:17:59.021Z,10.23
2022-12-23T04:20:26.611Z,10.24
2022-12-23T04:22:54.772Z,10.24
2022-12-23T04:25:22.332Z,10.24
2022-12-23T04:27:49.944Z,10.25
2022-12-23T04:30:18.728Z,10.25
2022-12-23T04:32:46.363Z,10.25
2022-12-23T04:35:14.873Z,10.26
2022-12-23T04:37:42.979Z,10.25
2022-12-23T04:40:10.579Z,10.25
2022-12-23T04:42:38.135Z,10.26
2022-12-23T04:45:05.751Z,10.25
2022-12-23T04:47:33.909Z,10.26
2022-12-23T04:50:01.540Z,10.27
2022-12-23T04:52:29.178Z,10.27
2022-12-23T04:54:56.845Z,10.27
2022-12-23T04:57:24.461Z,10.28
2022-12-23T04:59:54.068Z,10.28
2022-12-23T05:02:21.728Z,10.28
2022-12-23T05:04:49.409Z,10.28
2022-12-23T05:07:17.064Z,10.28
2022-12-23T05:09:44.652Z,10.27
2022-12-23T05:12:12.502Z,10.27
2022-12-23T05:14:40.103Z,10.28
2022-12-23T05:17:08.179Z,10.27
2022-12-23T05:19:35.924Z,10.26
2022-12-23T05:22:03.981Z,10.25
2022-12-23T05:24:31.883Z,10.25
2022-12-23T05:27:00.524Z,10.25
2022-12-23T05:29:28.483Z,10.25
2022-12-23T05:31:56.196Z,10.24
2022-12-23T05:34:23.863Z,10.23
2022-12-23T05:36:51.727Z,10.23
2022-12-23T05:39:19.361Z,10.23
2022-12-23T05:41:47.037Z,10.22
2022-12-23T05:44:15.030Z,10.22
2022-12-23T05:46:42.703Z,10.21
2022-12-23T05:49:11.122Z,10.19
2022-12-23T05:51:38.800Z,10.18
2022-12-23T05:54:06.449Z,10.19
2022-12-23T05:56:34.054Z,10.18
2022-12-23T05:59:01.726Z,10.18
2022-12-23T06:01:29.386Z,10.18
2022-12-23T06:03:57.176Z,10.18
2022-12-23T06:06:25.251Z,10.17
2022-12-23T06:08:59.139Z,10.17
2022-12-23T06:11:27.395Z,10.17
2022-12-23T06:13:55.143Z,10.16
2022-12-23T06:16:22.781Z,10.15
2022-12-23T06:18:50.481Z,10.15
2022-12-23T06:21:18.090Z,10.14
2022-12-23T06:23:45.749Z,10.14
2022-12-23T06:26:13.716Z,10.14
2022-12-23T06:28:41.678Z,10.14
2022-12-23T06:31:09.301Z,10.14
2022-12-23T06:33:36.984Z,10.15
2022-12-23T06:36:04.603Z,10.14
2022-12-23T06:38:32.463Z,10.14
2022-12-23T06:41:00.119Z,10.15
2022-12-23T06:43:27.738Z,10.13
2022-12-23T06:45:55.489Z,10.13
2022-12-23T06:48:23.231Z,10.13
2022-12-23T06:50:51.167Z,10.12
2022-12-23T06:53:19.778Z,10.12
2022-12-23T06:55:47.555Z,10.12
2022-12-23T06:58:15.192Z,10.12
2022-12-23T07:00:44.138Z,10.12
2022-12-23T07:03:12.060Z,10.11
2022-12-23T07:05:39.762Z,10.10
2022-12-23T07:08:07.433Z,10.09
2022-12-23T07:10:35.278Z,10.08
2022-12-23T07:13:03.292Z,10.09
2022-12-23T07:15:31.304Z,10.09
2022-12-23T07:17:59.106Z,10.09
2022-12-23T07:20:26.731Z,10.10
2022-12-23T07:22:54.369Z,10.09
2022-12-23T07:25:22.068Z,10.10
2022-12-23T07:27:50.458Z,10.10
2022-12-23T07:30:18.211Z,10.09
2022-12-23T07:32:45.903Z,10.10
2022-12-23T07:35:13.819Z,10.10
2022-12-23T07:37:41.548Z,10.09
2022-12-23T07:40:09.516Z,10.08
2022-12-23T07:42:46.629Z,10.07
2022-12-23T07:45:14.694Z,10.08
2022-12-23T07:47:42.364Z,10.07
2022-12-23T07:50:10.538Z,10.05
2022-12-23T07:52:38.258Z,10.04
2022-12-23T07:55:05.922Z,10.04
2022-12-23T07:57:38.267Z,10.03
2022-12-23T08:00:06.138Z,10.03
2022-12-23T08:02:34.529Z,10.02
2022-12-23T08:05:02.464Z,10.01
2022-12-23T08:07:30.219Z,10.01
2022-12-23T08:09:57.954Z,10.01
2022-12-23T08:12:25.697Z,10.01
2022-12-23T08:14:54.225Z,10.01
2022-12-23T08:17:22.279Z,10.01
2022-12-23T08:19:50.082Z,10.00
2022-12-23T08:22:18.137Z,10.00
2022-12-23T08:24:45.827Z,10.01
2022-12-23T08:27:13.832Z,10.02
2022-12-23T08:29:41.718Z,10.02
2022-12-23T08:32:09.441Z,10.02
2022-12-23T08:34:37.216Z,10.04
2022-12-23T08:37:05.033Z,10.06
2022-12-23T08:39:33.429Z,10.08
2022-12-23T08:42:01.663Z,10.09
2022-12-23T08:44:30.044Z,10.09
2022-12-23T08:46:57.696Z,10.10
2022-12-23T08:49:25.382Z,10.10
2022-12-23T08:51:53.707Z,10.12
2022-12-23T08:54:22.377Z,10.15
2022-12-23T08:56:50.034Z,10.18
2022-12-23T08:59:19.540Z,10.21
2022-12-23T09:01:48.078Z,10.23
2022-12-23T09:04:18.040Z,10.26
2022-12-23T09:06:45.859Z,10.28
2022-12-23T09:09:13.626Z,10.31
2022-12-23T09:11:42.027Z,10.34
2022-12-23T09:14:10.540Z,10.36
2022-12-23T09:16:38.299Z,10.37
2022-12-23T09:19:06.125Z,10.38
2022-12-23T09:21:33.963Z,10.40
2022-12-23T09:24:01.703Z,10.41
2022-12-23T09:26:29.974Z,10.42
2022-12-23T09:28:58.323Z,10.42
2022-12-23T09:31:29.268Z,10.42
2022-12-23T09:34:02.040Z,10.42
2022-12-23T09:36:30.172Z,10.40
2022-12-23T09:38:58.727Z,10.40
2022-12-23T09:41:26.659Z,10.40
2022-12-23T09:43:54.412Z,10.39
2022-12-23T09:46:22.298Z,10.41
2022-12-23T09:48:50.252Z,10.42
2022-12-23T09:51:18.588Z,10.44
2022-12-23T09:53:46.437Z,10.45
2022-12-23T09:56:14.337Z,10.47
2022-12-23T09:58:42.192Z,10.50
2022-12-23T10:01:09.916Z,10.52
2022-12-23T10:03:38.804Z,10.53
2022-12-23T10:06:06.770Z,10.55
2022-12-23T10:08:35.157Z,10.55
2022-12-23T10:11:03.111Z,10.55
2022-12-23T10:13:31.064Z,10.57
2022-12-23T10:15:59.963Z,10.57
2022-12-23T10:18:27.749Z,10.59
2022-12-23T10:20:55.619Z,10.60
2022-12-23T10:23:23.505Z,10.61
2022-12-23T10:25:52.160Z,10.62
2022-12-23T10:28:20.331Z,10.64
2022-12-23T10:31:11.241Z,10.64
2022-12-23T10:33:36.650Z,10.64
2022-12-23T10:36:04.547Z,10.61
2022-12-23T10:38:32.869Z,10.61
2022-12-23T10:41:05.350Z,10.58
2022-12-23T10:43:38.226Z,10.54
2022-12-23T10:46:06.100Z,10.51
2022-12-23T10:48:34.433Z,10.52
2022-12-23T10:51:02.161Z,10.52
2022-12-23T10:53:30.117Z,10.51
2022-12-23T10:55:57.966Z,10.53
2022-12-23T10:58:25.886Z,10.54
2022-12-23T11:00:53.882Z,10.57
2022-12-23T11:03:21.768Z,10.59
2022-12-23T11:05:49.658Z,10.61
2022-12-23T11:08:17.715Z,10.65
2022-12-23T11:10:45.460Z,10.71
2022-12-23T11:13:14.682Z,10.79
2022-12-23T11:15:42.643Z,10.85
2022-12-23T11:18:10.485Z,10.90
2022-12-23T11:20:38.199Z,10.94
2022-12-23T11:23:05.962Z,10.97
2022-12-23T11:25:34.494Z,10.97
2022-12-23T11:28:02.362Z,10.95
2022-12-23T11:30:30.191Z,10.92
2022-12-23T11:32:58.068Z,10.90
2022-12-23T11:35:26.432Z,10.88
2022-12-23T11:37:54.319Z,10.86
2022-12-23T11:40:22.059Z,10.85
2022-12-23T11:42:53.585Z,10.85
2022-12-23T11:45:23.326Z,10.87
2022-12-23T11:47:51.070Z,10.91
2022-12-23T11:50:19.704Z,10.95
2022-12-23T11:52:47.724Z,10.96
2022-12-23T11:55:16.000Z,10.96
2022-12-23T11:57:44.400Z,10.96
2022-12-23T12:00:12.518Z,10.95
2022-12-23T12:02:41.129Z,10.96
2022-12-23T12:05:09.321Z,10.94
2022-12-23T12:07:37.292Z,10.91
2022-12-23T12:10:05.105Z,10.88
2022-12-23T12:12:32.824Z,10.85
2022-12-23T12:15:01.691Z,10.85
2022-12-23T12:17:29.659Z,10.81
2022-12-23T12:19:57.595Z,10.80
2022-12-23T12:22:25.508Z,10.79
2022-12-23T12:24:53.330Z,10.77
2022-12-23T12:27:21.829Z,10.76
2022-12-23T12:29:49.734Z,10.74
2022-12-23T12:32:17.530Z,10.72
2022-12-23T12:34:45.434Z,10.72
2022-12-23T12:37:13.511Z,10.72
2022-12-23T12:39:41.607Z,10.73
2022-12-23T12:42:09.998Z,10.71
2022-12-23T12:44:37.977Z,10.68
2022-12-23T12:47:21.830Z,10.65
2022-12-23T12:49:54.171Z,10.65
2022-12-23T12:52:22.411Z,10.63
2022-12-23T12:54:51.248Z,10.61
2022-12-23T12:57:20.371Z,10.59
2022-12-23T12:59:48.143Z,10.56
2022-12-23T13:02:17.659Z,10.57
2022-12-23T13:04:45.841Z,10.56
2022-12-23T13:07:13.663Z,10.56
2022-12-23T13:09:41.662Z,10.56
2022-12-23T13:12:09.598Z,10.56
2022-12-23T13:14:38.539Z,10.55
2022-12-23T13:17:06.550Z,10.55
2022-12-23T13:19:34.617Z,10.55
2022-12-23T13:22:02.471Z,10.57
2022-12-23T13:24:30.828Z,10.56
2022-12-23T13:26:59.075Z,10.58
2022-12-23T13:29:26.910Z,10.57
2022-12-23T13:31:54.870Z,10.56
2022-12-23T13:34:22.824Z,10.55
2022-12-23T13:36:50.916Z,10.52
2022-12-23T13:39:19.125Z,10.50
2022-12-23T13:41:47.120Z,10.45
2022-12-23T13:44:15.431Z,10.42
2022-12-23T13:46:43.505Z,10.37
2022-12-23T13:49:11.621Z,10.34
2022-12-23T13:51:40.533Z,10.31
2022-12-23T13:54:08.478Z,10.27
2022-12-23T13:56:36.514Z,10.24
2022-12-23T13:59:04.760Z,10.22
2022-12-23T14:01:32.858Z,10.20
2022-12-23T14:04:01.581Z,10.17
2022-12-23T14:06:29.817Z,10.15
2022-12-23T14:08:57.705Z,10.15
2022-12-23T14:11:25.726Z,10.21
2022-12-23T14:13:55.405Z,10.27
2022-12-23T14:16:24.246Z,10.31
2022-12-23T14:18:52.350Z,10.32
2022-12-23T14:21:20.188Z,10.31
2022-12-23T14:23:50.362Z,10.27
2022-12-23T14:26:18.460Z,10.26
2022-12-23T14:28:47.955Z,10.23
2022-12-23T14:31:15.830Z,10.21
2022-12-23T14:33:43.930Z,10.20
2022-12-23T14:36:11.800Z,10.18
2022-12-23T14:38:39.755Z,10.16
2022-12-23T14:41:08.631Z,10.15
2022-12-23T14:43:36.517Z,10.13
2022-12-23T14:46:05.149Z,10.09
2022-12-23T14:48:33.298Z,10.07
2022-12-23T14:51:01.293Z,10.05
2022-12-23T14:53:29.192Z,10.05
2022-12-23T14:55:57.269Z,10.04
2022-12-23T14:58:25.028Z,10.03
2022-12-23T15:00:53.006Z,10.03
2022-12-23T15:03:21.185Z,10.02
2022-12-23T15:05:51.644Z,10.00
2022-12-23T15:08:19.566Z,10.00
2022-12-23T15:10:47.783Z,9.99
2022-12-23T15:13:16.563Z,9.97
2022-12-23T15:15:44.461Z,9.95
2022-12-23T15:18:13.064Z,9.93
2022-12-23T15:20:41.108Z,9.91
2022-12-23T15:23:09.794Z,9.91
2022-12-23T15:25:37.997Z,9.91
2022-12-23T15:28:05.975Z,9.90
2022-12-23T15:30:34.655Z,9.90
2022-12-23T15:33:02.873Z,9.90
2022-12-23T15:35:31.167Z,9.91
2022-12-23T15:37:59.129Z,9.93
2022-12-23T15:40:27.375Z,9.95
2022-12-23T15:42:55.731Z,9.97
2022-12-23T15:45:23.717Z,9.98
2022-12-23T15:47:51.871Z,9.98
2022-12-23T15:50:20.410Z,9.98
2022-12-23T15:52:48.232Z,9.99
2022-12-23T15:55:16.870Z,10.01
2022-12-23T15:57:50.002Z,10.05
2022-12-23T16:00:18.655Z,10.07
2022-12-23T16:03:03.942Z,10.10
2022-12-23T16:05:34.094Z,10.14
2022-12-23T16:08:02.046Z,10.21
2022-12-23T16:10:29.994Z,10.38
2022-12-23T16:12:58.083Z,10.54
2022-12-23T16:15:26.053Z,10.70
2022-12-23T16:17:53.991Z,10.85
2022-12-23T16:20:22.039Z,10.99
2022-12-23T16:22:51.414Z,11.12
2022-12-23T16:25:20.480Z,11.25
2022-12-23T16:27:48.479Z,11.35
2022-12-23T16:30:16.813Z,11.46
2022-12-23T16:32:44.880Z,11.57
2022-12-23T16:35:13.010Z,11.66
2022-12-23T16:37:43.409Z,11.73
2022-12-23T16:40:14.734Z,11.75
2022-12-23T16:42:43.433Z,11.73
2022-12-23T16:45:11.301Z,11.73
2022-12-23T16:47:39.398Z,11.74
2022-12-23T16:50:07.190Z,11.75
2022-12-23T16:52:35.084Z,11.76
2022-12-23T16:55:03.105Z,11.78
2022-12-23T16:57:30.974Z,11.80
2022-12-23T16:59:58.907Z,11.82
2022-12-23T17:02:29.053Z,11.83
2022-12-23T17:04:57.037Z,11.87
2022-12-23T17:07:27.003Z,11.90
2022-12-23T17:09:55.041Z,11.94
2022-12-23T17:12:23.012Z,12.01
2022-12-23T17:14:51.155Z,12.04
2022-12-23T17:17:19.066Z,12.06
2022-12-23T17:19:47.725Z,12.08
2022-12-23T17:22:16.419Z,12.11
2022-12-23T17:24:44.897Z,12.13
2022-12-23T17:27:12.871Z,12.14
2022-12-23T17:29:40.916Z,12.16
2022-12-23T17:32:09.506Z,12.16
2022-12-23T17:34:37.566Z,12.17
2022-12-23T17:37:05.621Z,12.17
2022-12-23T17:39:33.688Z,12.16
2022-12-23T17:42:01.497Z,12.15
2022-12-23T17:44:30.143Z,12.12
2022-12-23T17:46:58.135Z,12.11
2022-12-23T17:49:26.071Z,12.11
2022-12-23T17:51:53.895Z,12.12
2022-12-23T17:54:21.914Z,12.15
2022-12-23T17:56:50.884Z,12.17
2022-12-23T17:59:18.716Z,12.22
2022-12-23T18:01:47.143Z,12.28
2022-12-23T18:04:15.172Z,12.37
2022-12-23T18:06:43.339Z,12.45
2022-12-23T18:09:11.995Z,12.49
2022-12-23T18:11:39.852Z,12.53
2022-12-23T18:14:07.833Z,12.56
2022-12-23T18:16:35.890Z,12.58
2022-12-23T18:19:03.763Z,12.60
2022-12-23T18:21:32.169Z,12.62
2022-12-23T18:24:00.158Z,12.64
2022-12-23T18:26:28.116Z,12.64
2022-12-23T18:28:56.578Z,12.61
2022-12-23T18:31:24.706Z,12.60
2022-12-23T18:33:53.280Z,12.62
2022-12-23T18:36:21.235Z,12.62
2022-12-23T18:38:49.324Z,12.50
2022-12-23T18:41:17.216Z,12.34
2022-12-23T18:43:45.143Z,12.23
2022-12-23T18:46:13.911Z,12.14
2022-12-23T18:48:41.900Z,12.06
2022-12-23T18:51:10.706Z,12.00
2022-12-23T18:53:38.897Z,11.93
2022-12-23T18:56:06.727Z,11.89
2022-12-23T18:58:35.377Z,11.85
2022-12-23T19:01:03.428Z,11.82
2022-12-23T19:03:31.278Z,11.78
2022-12-23T19:06:02.006Z,11.73
2022-12-23T19:08:30.083Z,11.69
2022-12-23T19:10:58.537Z,11.66
2022-12-23T19:13:26.919Z,11.63
2022-12-23T19:15:55.096Z,11.62
2022-12-23T19:18:23.046Z,11.63
2022-12-23T19:20:51.037Z,11.65
2022-12-23T19:23:19.416Z,11.70
2022-12-23T19:25:54.415Z,11.77
2022-12-23T19:28:23.343Z,11.83
2022-12-23T19:30:51.344Z,11.89
2022-12-23T19:33:20.066Z,11.93
2022-12-23T19:35:48.129Z,11.99
2022-12-23T19:38:15.939Z,11.99
2022-12-23T19:40:43.918Z,11.98
2022-12-23T19:43:11.894Z,11.98
2022-12-23T19:45:40.455Z,11.95
2022-12-23T19:48:08.352Z,11.95
2022-12-23T19:50:36.462Z,11.96
2022-12-23T19:53:04.275Z,11.96
2022-12-23T19:55:32.514Z,11.94
2022-12-23T19:58:00.883Z,11.91
2022-12-23T20:00:28.822Z,11.88
2022-12-23T20:02:58.917Z,11.87
2022-12-23T20:05:27.499Z,11.85
2022-12-23T20:07:55.277Z,11.83
2022-12-23T20:10:23.883Z,11.82
2022-12-23T20:12:51.992Z,11.84
2022-12-23T20:15:19.885Z,11.78
2022-12-23T20:17:47.726Z,11.69
2022-12-23T20:20:15.597Z,11.62
2022-12-23T20:22:44.150Z,11.58
2022-12-23T20:25:12.209Z,11.57
2022-12-23T20:27:40.568Z,11.59
2022-12-23T20:30:08.518Z,11.63
2022-12-23T20:32:36.397Z,11.68
2022-12-23T20:35:04.823Z,11.71
2022-12-23T20:37:33.419Z,11.76
2022-12-23T20:40:01.235Z,11.79
2022-12-23T20:42:29.428Z,11.81
2022-12-23T20:44:57.314Z,11.82
2022-12-23T20:47:25.816Z,11.82
2022-12-23T20:49:53.809Z,11.84
2022-12-23T20:52:21.735Z,11.83
2022-12-23T20:54:49.663Z,11.74
2022-12-23T20:57:17.740Z,11.63
2022-12-23T20:59:47.900Z,11.51
2022-12-23T21:02:15.951Z,11.42
2022-12-23T21:04:43.856Z,11.35
2022-12-23T21:07:11.723Z,11.30
2022-12-23T21:09:39.613Z,11.26
2022-12-23T21:12:08.051Z,11.24
2022-12-23T21:14:35.915Z,11.22
2022-12-23T21:17:03.871Z,11.22
2022-12-23T21:19:31.793Z,11.24
2022-12-23T21:21:59.898Z,11.28
2022-12-23T21:24:28.375Z,11.32
2022-12-23T21:26:57.371Z,11.37
2022-12-23T21:29:25.391Z,11.45
2022-12-23T21:31:53.430Z,11.52
2022-12-23T21:34:21.480Z,11.55
2022-12-23T21:36:49.841Z,11.51
2022-12-23T21:39:17.917Z,11.41
2022-12-23T21:41:46.266Z,11.32
2022-12-23T21:44:15.257Z,11.25
2022-12-23T21:46:43.227Z,11.21
2022-12-23T21:49:11.827Z,11.16
2022-12-23T21:51:41.298Z,11.14
2022-12-23T21:54:09.881Z,11.11
2022-12-23T21:56:37.989Z,11.08
2022-12-23T21:59:05.842Z,11.04
2022-12-23T22:01:33.999Z,11.00
2022-12-23T22:04:02.083Z,10.96
2022-12-23T22:06:30.522Z,10.93
2022-12-23T22:08:58.391Z,10.91
2022-12-23T22:11:26.418Z,10.90
2022-12-23T22:13:54.692Z,10.90
2022-12-23T22:16:22.641Z,10.88
2022-12-23T22:18:50.672Z,10.86
2022-12-23T22:21:18.510Z,10.84
2022-12-23T22:23:46.816Z,10.83
2022-12-23T22:26:18.845Z,10.80
2022-12-23T22:28:51.848Z,10.79
2022-12-23T22:31:19.860Z,10.76
2022-12-23T22:33:47.629Z,10.74
2022-12-23T22:36:16.127Z,10.72
2022-12-23T22:38:44.003Z,10.71
2022-12-23T22:41:12.064Z,10.70
2022-12-23T22:43:39.973Z,10.70
2022-12-23T22:46:07.978Z,10.69
2022-12-23T22:48:35.942Z,10.67
2022-12-23T22:51:03.893Z,10.68
2022-12-23T22:53:31.869Z,10.69
2022-12-23T22:55:59.735Z,10.72
2022-12-23T22:58:27.444Z,10.75
2022-12-23T23:00:55.783Z,10.77
2022-12-23T23:03:23.550Z,10.81
2022-12-23T23:05:51.355Z,10.85
2022-12-23T23:08:19.301Z,10.90
2022-12-23T23:10:47.368Z,10.92
2022-12-23T23:13:16.092Z,10.91
2022-12-23T23:15:43.973Z,10.90
2022-12-23T23:18:11.691Z,10.89
2022-12-23T23:20:39.513Z,10.93
2022-12-23T23:23:07.375Z,10.98
2022-12-23T23:25:35.758Z,11.03
2022-12-23T23:28:03.594Z,11.07
2022-12-23T23:30:31.457Z,11.10
2022-12-23T23:32:59.561Z,11.12
2022-12-23T23:35:27.288Z,11.14
2022-12-23T23:37:55.865Z,11.16
2022-12-23T23:40:23.581Z,11.18
2022-12-23T23:42:51.443Z,11.19
2022-12-23T23:45:19.209Z,11.21
2022-12-23T23:47:46.954Z,11.21
2022-12-23T23:50:14.684Z,11.20
2022-12-23T23:52:42.489Z,11.21
2022-12-23T23:55:10.580Z,11.20
2022-12-23T23:57:38.258Z,11.19
